Plan De Guadalupe International Airport
MMIO : now visible

Airfield :











YOU CAN JOIN US ON...

 
LOGIN :

Register | Disclaimer

   EN    FR    IT 

 









Legend :    VFR   Marginal VFR   IFR   Intensive IFR   Very Intensive IFR
Visi :
Ceiling :
>= 8 km
>= 3000ft
5 to 8 km
1000 to 3000 ft
1500m to 5 km
500 to 1000 ft
800 to 1500m
200 to 500 ft
< 800m
< 200 ft
Symbols :   Thunderstorms  Fog  Heavy snow  Heavy precipitations  Wind > 20 kt






- Airport Elevation : 4778 ft
- IATA code : SLW


MMIO - Plan De Guadalupe International

CURRENT METAR :
  • 232240Z 34010KT 10SM SKC 23/10 A3007 RMK SC

EXPIRED METARs :
  • 232140Z 36008KT 10SM SKC 26/10 A3007 RMK CU
  • 232040Z 36005KT 10SM SKC 28/11 A3008 RMK CU

TAF TAF MMIO
Valid from the 23 at 18:00 until the 24 at 18:00 UTC


231726Z 2318/2418 03010KT P6SM SKC
BECMG 2401/2402 00000KT
FM241500 06010KT P6SM SKC



MET'MAP, your aeronautical weather chart ! - Copyright ORBIFLY December 2007 - Disclaimer

ORBIFLY MET'MAP TEAM :

Programming & Development : Alexandra Zaïnal
Concept & Development : Baudouin d'Aumeries
Co-Development & Prog : Marc-Olivier Méhu
Technical & hardware support : Manuel Goepfert

Contact : metmap@orbifly.com




SOURCES & CREDITS :

   NOAA       Earth
Advisory